createdAt,value
2022-11-24T00:01:19.757Z,21.00
2022-11-24T00:03:53.524Z,25.75
2022-11-24T00:06:21.227Z,23.25
2022-11-24T00:08:48.692Z,21.75
2022-11-24T00:11:21.982Z,20.50
2022-11-24T00:13:49.547Z,20.50
2022-11-24T00:16:22.949Z,21.00
2022-11-24T00:18:52.104Z,22.75
2022-11-24T00:21:20.604Z,22.75
2022-11-24T00:23:49.325Z,19.00
2022-11-24T00:26:21.993Z,23.75
2022-11-24T00:28:51.005Z,21.75
2022-11-24T00:31:20.209Z,23.50
2022-11-24T00:33:49.338Z,25.50
2022-11-24T00:36:18.596Z,16.50
2022-11-24T00:38:46.245Z,23.25
2022-11-24T00:41:14.252Z,22.50
2022-11-24T00:43:41.424Z,24.00
2022-11-24T00:46:09.030Z,24.00
2022-11-24T00:48:36.341Z,20.00
2022-11-24T00:51:06.890Z,21.00
2022-11-24T00:53:34.453Z,19.50
2022-11-24T00:56:04.328Z,18.00
2022-11-24T00:58:32.117Z,17.50
2022-11-24T01:01:11.380Z,18.00
2022-11-24T01:03:38.950Z,17.25
2022-11-24T01:06:09.168Z,17.00
2022-11-24T01:08:38.336Z,18.25
2022-11-24T01:11:24.369Z,20.00
2022-11-24T01:13:59.539Z,19.75
2022-11-24T01:16:30.651Z,21.75
2022-11-24T01:18:57.994Z,20.50
2022-11-24T01:21:25.647Z,23.50
2022-11-24T01:23:52.928Z,21.25
2022-11-24T01:26:22.974Z,23.00
2022-11-24T01:28:57.901Z,23.25
2022-11-24T01:31:26.568Z,20.00
2022-11-24T01:33:54.372Z,21.50
2022-11-24T01:36:22.657Z,22.50
2022-11-24T01:38:50.238Z,3.50
2022-11-24T01:41:21.811Z,17.75
2022-11-24T01:43:50.101Z,22.75
2022-11-24T01:46:29.873Z,22.00
2022-11-24T01:49:09.039Z,25.00
2022-11-24T01:51:43.436Z,24.25
2022-11-24T01:54:22.716Z,28.50
2022-11-24T01:56:54.800Z,24.00
2022-11-24T01:59:22.245Z,24.75
2022-11-24T02:01:52.616Z,25.75
2022-11-24T02:04:24.519Z,23.75
2022-11-24T02:06:54.821Z,23.75
2022-11-24T02:09:26.753Z,24.75
2022-11-24T02:11:55.442Z,17.25
2022-11-24T02:14:25.125Z,21.50
2022-11-24T02:16:53.506Z,22.25
2022-11-24T02:19:42.196Z,24.25
2022-11-24T02:22:19.072Z,22.00
2022-11-24T02:25:31.211Z,20.00
2022-11-24T02:28:02.508Z,22.25
2022-11-24T02:30:29.667Z,24.25
2022-11-24T02:32:57.476Z,19.25
2022-11-24T02:35:27.755Z,14.50
2022-11-24T02:37:55.263Z,20.75
2022-11-24T02:40:26.092Z,20.75
2022-11-24T02:42:59.088Z,23.00
2022-11-24T02:45:27.476Z,21.25
2022-11-24T02:47:55.022Z,20.25
2022-11-24T02:50:22.127Z,24.50
2022-11-24T02:52:49.623Z,22.50
2022-11-24T02:55:16.890Z,20.00
2022-11-24T02:57:44.524Z,21.00
2022-11-24T03:00:12.205Z,22.00
2022-11-24T03:02:40.821Z,19.50
2022-11-24T03:05:08.471Z,22.50
2022-11-24T03:07:36.111Z,20.50
2022-11-24T03:10:03.800Z,16.75
2022-11-24T03:12:31.382Z,21.50
2022-11-24T03:14:58.661Z,24.50
2022-11-24T03:17:33.241Z,22.50
2022-11-24T03:20:04.783Z,19.50
2022-11-24T03:22:33.046Z,24.00
2022-11-24T03:25:00.298Z,24.00
2022-11-24T03:27:27.868Z,18.25
2022-11-24T03:29:54.954Z,27.33
2022-11-24T03:32:22.580Z,25.75
2022-11-24T03:34:49.635Z,23.50
2022-11-24T03:37:17.308Z,28.25
2022-11-24T03:39:44.559Z,21.25
2022-11-24T03:42:15.174Z,24.50
2022-11-24T03:44:42.311Z,26.75
2022-11-24T03:47:11.780Z,25.50
2022-11-24T03:49:39.405Z,23.00
2022-11-24T03:52:08.391Z,21.75
2022-11-24T03:54:35.986Z,22.00
2022-11-24T03:57:03.758Z,24.25
2022-11-24T03:59:30.901Z,24.00
2022-11-24T04:01:58.487Z,26.75
2022-11-24T04:04:25.673Z,22.75
2022-11-24T04:06:53.113Z,23.75
2022-11-24T04:09:20.346Z,21.50
2022-11-24T04:12:06.339Z,25.50
2022-11-24T04:14:33.748Z,24.50
2022-11-24T04:17:01.492Z,22.50
2022-11-24T04:19:28.551Z,24.25
2022-11-24T04:21:56.154Z,23.25
2022-11-24T04:24:23.258Z,23.00
2022-11-24T04:26:50.676Z,24.50
2022-11-24T04:29:17.727Z,20.75
2022-11-24T04:31:45.275Z,19.50
2022-11-24T04:34:12.651Z,20.25
2022-11-24T04:36:41.288Z,23.75
2022-11-24T04:39:23.941Z,24.75
2022-11-24T04:41:53.690Z,27.75
2022-11-24T04:44:21.014Z,26.75
2022-11-24T04:46:48.669Z,28.75
2022-11-24T04:49:15.884Z,25.00
2022-11-24T04:51:43.384Z,25.25
2022-11-24T04:54:12.227Z,3.75
2022-11-24T04:56:41.523Z,21.75
2022-11-24T04:59:13.633Z,27.25
2022-11-24T05:01:43.056Z,23.75
2022-11-24T05:04:12.060Z,26.00
2022-11-24T05:06:39.919Z,25.25
2022-11-24T05:09:08.277Z,25.25
2022-11-24T05:11:35.722Z,26.50
2022-11-24T05:14:02.872Z,25.00
2022-11-24T05:16:30.441Z,26.75
2022-11-24T05:18:57.554Z,33.75
2022-11-24T05:21:25.049Z,24.00
2022-11-24T05:23:52.120Z,28.00
2022-11-24T05:26:19.698Z,27.00
2022-11-24T05:28:47.118Z,34.25
2022-11-24T05:31:14.706Z,36.75
2022-11-24T05:33:43.553Z,34.25
2022-11-24T05:36:33.736Z,37.00
2022-11-24T05:39:00.795Z,33.75
2022-11-24T05:41:28.243Z,34.50
2022-11-24T05:43:55.335Z,39.25
2022-11-24T05:46:22.796Z,36.00
2022-11-24T05:48:49.903Z,31.75
2022-11-24T05:51:17.451Z,34.25
2022-11-24T05:53:44.567Z,38.50
2022-11-24T05:56:11.990Z,40.25
2022-11-24T05:58:38.972Z,32.75
2022-11-24T06:01:07.748Z,25.75
2022-11-24T06:03:34.911Z,55.00
2022-11-24T06:06:02.290Z,39.50
2022-11-24T06:08:31.279Z,40.25
2022-11-24T06:11:17.425Z,29.25
2022-11-24T06:13:46.099Z,34.50
2022-11-24T06:16:13.687Z,48.75
2022-11-24T06:18:41.072Z,36.25
2022-11-24T06:21:11.210Z,27.50
2022-11-24T06:23:38.847Z,35.00
2022-11-24T06:26:06.557Z,22.25
2022-11-24T06:28:34.596Z,34.50
2022-11-24T06:31:03.748Z,34.50
2022-11-24T06:33:32.985Z,39.25
2022-11-24T06:36:06.493Z,32.25
2022-11-24T06:38:35.546Z,28.75
2022-11-24T06:41:06.520Z,35.25
2022-11-24T06:43:34.833Z,33.25
2022-11-24T06:46:03.034Z,31.50
2022-11-24T06:48:30.994Z,26.25
2022-11-24T06:51:03.134Z,28.50
2022-11-24T06:53:32.030Z,25.50
2022-11-24T06:56:01.031Z,29.50
2022-11-24T06:58:28.680Z,27.00
2022-11-24T07:00:56.267Z,24.75
2022-11-24T07:03:23.534Z,29.25
2022-11-24T07:05:57.373Z,31.25
2022-11-24T07:08:25.394Z,31.00
2022-11-24T07:10:52.904Z,30.25
2022-11-24T07:13:20.418Z,30.50
2022-11-24T07:15:47.864Z,33.25
2022-11-24T07:18:14.857Z,13.50
2022-11-24T07:20:42.320Z,32.25
2022-11-24T07:23:09.540Z,35.00
2022-11-24T07:25:36.976Z,35.25
2022-11-24T07:28:05.679Z,36.50
2022-11-24T07:30:33.107Z,35.50
2022-11-24T07:33:01.563Z,35.75
2022-11-24T07:35:29.745Z,37.25
2022-11-24T07:37:59.779Z,30.75
2022-11-24T07:40:27.829Z,45.50
2022-11-24T07:42:54.847Z,32.00
2022-11-24T07:45:22.494Z,38.25
2022-11-24T07:47:49.677Z,45.75
2022-11-24T07:50:17.508Z,47.25
2022-11-24T07:52:44.557Z,39.00
2022-11-24T07:55:11.985Z,35.00
2022-11-24T07:57:38.999Z,35.25
2022-11-24T08:00:07.091Z,36.50
2022-11-24T08:02:34.189Z,35.00
2022-11-24T08:05:01.650Z,38.00
2022-11-24T08:07:29.192Z,40.00
2022-11-24T08:09:56.716Z,39.25
2022-11-24T08:12:23.838Z,35.00
2022-11-24T08:14:51.710Z,39.75
2022-11-24T08:17:18.891Z,39.50
2022-11-24T08:19:46.306Z,35.50
2022-11-24T08:22:13.327Z,46.25
2022-11-24T08:24:46.462Z,44.75
2022-11-24T08:27:14.325Z,41.75
2022-11-24T08:29:42.647Z,38.00
2022-11-24T08:32:11.469Z,38.50
2022-11-24T08:34:39.301Z,39.00
2022-11-24T08:37:06.735Z,33.50
2022-11-24T08:39:34.393Z,36.50
2022-11-24T08:42:01.449Z,28.75
2022-11-24T08:44:29.066Z,38.25
2022-11-24T08:46:56.174Z,39.67
2022-11-24T08:49:23.658Z,40.00
2022-11-24T08:51:51.515Z,37.00
2022-11-24T08:54:19.175Z,38.25
2022-11-24T08:57:16.030Z,36.00
2022-11-24T09:00:36.364Z,37.50
2022-11-24T09:06:31.228Z,35.75
2022-11-24T09:09:01.332Z,41.75
2022-11-24T09:11:35.665Z,38.75
2022-11-24T09:14:25.880Z,38.00
2022-11-24T09:16:59.802Z,38.00
2022-11-24T09:19:27.009Z,36.25
2022-11-24T09:21:56.722Z,37.75
2022-11-24T09:24:24.127Z,39.00
2022-11-24T09:26:53.639Z,34.50
2022-11-24T09:29:20.670Z,42.00
2022-11-24T09:31:48.048Z,38.00
2022-11-24T09:34:15.924Z,41.75
2022-11-24T09:36:43.524Z,38.00
2022-11-24T09:39:11.356Z,38.25
2022-11-24T09:42:03.287Z,40.25
2022-11-24T09:44:54.600Z,33.75
2022-11-24T09:47:44.817Z,37.75
2022-11-24T09:50:49.889Z,34.00
2022-11-24T09:53:38.221Z,35.75
2022-11-24T09:56:18.071Z,30.75
2022-11-24T09:59:17.886Z,39.00
2022-11-24T10:01:46.749Z,29.25
2022-11-24T10:04:28.572Z,37.50
2022-11-24T10:07:17.402Z,30.50
2022-11-24T10:10:03.245Z,35.00
2022-11-24T10:12:53.585Z,37.25
2022-11-24T10:15:33.181Z,35.50
2022-11-24T10:18:21.756Z,37.25
2022-11-24T10:20:56.334Z,34.00
2022-11-24T10:23:55.229Z,30.75
2022-11-24T10:26:39.233Z,18.00
2022-11-24T10:29:30.899Z,34.00
2022-11-24T10:31:58.554Z,35.25
2022-11-24T10:34:34.705Z,35.75
2022-11-24T10:37:11.289Z,37.50
2022-11-24T10:39:44.051Z,36.00
2022-11-24T10:42:30.523Z,35.00
2022-11-24T10:45:10.339Z,36.75
2022-11-24T10:47:38.659Z,33.67
2022-11-24T10:50:28.310Z,33.00
2022-11-24T10:53:00.837Z,37.75
2022-11-24T10:55:56.702Z,37.75
2022-11-24T10:58:29.540Z,35.75
2022-11-24T11:01:01.429Z,28.00
2022-11-24T11:03:33.380Z,36.50
2022-11-24T11:06:14.794Z,35.50
2022-11-24T11:08:42.228Z,36.75
2022-11-24T11:11:21.025Z,37.75
2022-11-24T11:13:58.171Z,36.00
2022-11-24T11:16:33.322Z,36.00
2022-11-24T11:19:15.783Z,37.00
2022-11-24T11:22:00.483Z,37.50
2022-11-24T11:24:28.948Z,34.25
2022-11-24T11:27:05.182Z,39.75
2022-11-24T11:35:15.598Z,38.00
2022-11-24T11:37:44.378Z,33.00
2022-11-24T11:40:18.212Z,33.00
2022-11-24T11:43:04.976Z,37.50
2022-11-24T11:45:37.144Z,39.25
2022-11-24T11:48:04.198Z,37.00
2022-11-24T11:51:14.745Z,35.25
2022-11-24T11:53:52.527Z,34.75
2022-11-24T11:56:27.312Z,37.50
2022-11-24T11:59:22.514Z,37.75
2022-11-24T12:01:58.975Z,37.50
2022-11-24T12:04:57.062Z,34.50
2022-11-24T12:07:57.464Z,35.00
2022-11-24T12:10:45.969Z,37.25
2022-11-24T12:13:41.340Z,0.00
2022-11-24T12:16:43.102Z,36.00
2022-11-24T12:19:45.988Z,36.75
2022-11-24T12:22:15.853Z,35.50
2022-11-24T12:24:52.961Z,35.50
2022-11-24T12:27:27.931Z,30.00
2022-11-24T12:30:02.954Z,31.75
2022-11-24T12:32:41.323Z,27.00
2022-11-24T12:35:28.297Z,34.00
2022-11-24T12:38:13.093Z,35.75
2022-11-24T12:44:00.744Z,35.25
2022-11-24T12:46:40.866Z,32.75
2022-11-24T12:49:45.594Z,34.00
2022-11-24T12:52:37.180Z,34.25
2022-11-24T12:55:05.450Z,36.00
2022-11-24T12:58:09.382Z,35.50
2022-11-24T13:01:02.578Z,30.75
2022-11-24T13:03:48.365Z,34.50
2022-11-24T13:06:26.306Z,37.75
2022-11-24T13:08:53.976Z,37.75
2022-11-24T13:11:24.169Z,35.75
2022-11-24T13:13:59.837Z,36.50
2022-11-24T13:16:37.181Z,35.25
2022-11-24T13:19:20.395Z,36.25
2022-11-24T13:21:52.201Z,32.25
2022-11-24T13:24:36.457Z,27.50
2022-11-24T13:27:16.330Z,35.25
2022-11-24T13:29:51.202Z,34.25
2022-11-24T13:32:18.479Z,36.00
2022-11-24T13:34:46.159Z,34.00
2022-11-24T13:37:31.746Z,29.00
2022-11-24T13:40:12.425Z,35.50
2022-11-24T13:43:08.599Z,37.50
2022-11-24T13:45:49.635Z,38.00
2022-11-24T13:48:19.726Z,39.00
2022-11-24T13:50:50.804Z,38.25
2022-11-24T13:53:38.962Z,38.00
2022-11-24T13:56:22.289Z,37.50
2022-11-24T13:59:01.493Z,37.75
2022-11-24T14:01:33.679Z,38.50
2022-11-24T14:04:31.958Z,35.00
2022-11-24T14:07:08.797Z,36.00
2022-11-24T14:09:47.032Z,34.25
2022-11-24T14:12:20.747Z,41.25
2022-11-24T14:15:01.149Z,42.75
2022-11-24T14:17:31.645Z,38.50
2022-11-24T14:19:59.773Z,39.75
2022-11-24T14:22:41.505Z,38.00
2022-11-24T14:25:26.331Z,40.25
2022-11-24T14:27:54.053Z,40.75
2022-11-24T14:30:23.700Z,38.25
2022-11-24T14:33:16.662Z,38.00
2022-11-24T14:35:46.272Z,39.50
2022-11-24T14:38:14.547Z,36.00
2022-11-24T14:40:56.547Z,42.00
2022-11-24T14:43:33.313Z,39.00
2022-11-24T14:46:14.974Z,37.00
2022-11-24T14:48:50.968Z,40.25
2022-11-24T14:51:31.693Z,37.25
2022-11-24T14:54:03.287Z,38.75
2022-11-24T14:56:36.607Z,36.75
2022-11-24T14:59:20.362Z,39.00
2022-11-24T15:01:47.755Z,41.25
2022-11-24T15:07:26.239Z,53.00
2022-11-24T15:09:58.329Z,44.25
2022-11-24T15:12:35.028Z,48.75
2022-11-24T15:15:14.701Z,45.50
2022-11-24T15:17:51.459Z,50.50
2022-11-24T15:20:26.627Z,41.00
2022-11-24T15:23:13.579Z,47.50
2022-11-24T15:25:41.063Z,21.50
2022-11-24T15:28:09.407Z,44.00
2022-11-24T15:30:37.524Z,48.75
2022-11-24T15:33:14.773Z,45.50
2022-11-24T15:35:42.896Z,48.00
2022-11-24T15:38:10.543Z,40.75
2022-11-24T15:40:39.600Z,41.00
2022-11-24T15:43:33.725Z,46.50
2022-11-24T15:46:02.833Z,41.50
2022-11-24T15:48:30.517Z,44.75
2022-11-24T15:50:59.864Z,41.75
2022-11-24T15:53:34.902Z,29.00
2022-11-24T15:56:05.622Z,50.25
2022-11-24T15:58:32.729Z,49.50
2022-11-24T16:01:00.409Z,42.00
2022-11-24T16:03:57.425Z,48.75
2022-11-24T16:06:23.791Z,49.25
2022-11-24T16:08:53.612Z,67.00
2022-11-24T16:11:21.834Z,84.75
2022-11-24T16:13:52.926Z,96.50
2022-11-24T16:16:22.310Z,103.75
2022-11-24T16:18:49.502Z,109.50
2022-11-24T16:21:16.947Z,75.50
2022-11-24T16:23:44.090Z,52.25
2022-11-24T16:26:11.671Z,61.00
2022-11-24T16:28:38.986Z,55.50
2022-11-24T16:31:06.548Z,41.50
2022-11-24T16:33:33.759Z,43.00
2022-11-24T16:36:01.171Z,39.75
2022-11-24T16:38:28.305Z,45.25
2022-11-24T16:40:57.176Z,47.00
2022-11-24T16:43:24.879Z,48.50
2022-11-24T16:46:16.554Z,47.50
2022-11-24T16:48:45.747Z,45.00
2022-11-24T16:51:14.179Z,37.00
2022-11-24T16:53:41.997Z,51.75
2022-11-24T16:56:10.021Z,58.00
2022-11-24T16:58:38.621Z,64.00
2022-11-24T17:01:08.408Z,44.00
2022-11-24T17:03:38.553Z,62.75
2022-11-24T17:06:08.445Z,51.25
2022-11-24T17:08:37.042Z,61.67
2022-11-24T17:11:22.397Z,55.75
2022-11-24T17:13:50.649Z,47.00
2022-11-24T17:16:20.799Z,45.25
2022-11-24T17:18:48.792Z,40.00
2022-11-24T17:21:19.214Z,48.00
2022-11-24T17:23:46.773Z,44.25
2022-11-24T17:26:16.499Z,58.25
2022-11-24T17:28:44.685Z,45.00
2022-11-24T17:31:21.898Z,44.25
2022-11-24T17:33:51.336Z,42.00
2022-11-24T17:36:20.412Z,48.50
2022-11-24T17:38:49.636Z,59.25
2022-11-24T17:41:18.549Z,43.50
2022-11-24T17:43:50.557Z,55.75
2022-11-24T17:46:18.387Z,46.50
2022-11-24T17:48:46.852Z,46.00
2022-11-24T17:51:17.068Z,41.75
2022-11-24T17:53:46.693Z,52.75
2022-11-24T17:56:23.797Z,42.75
2022-11-24T17:58:59.705Z,40.00
2022-11-24T18:01:32.508Z,42.00
2022-11-24T18:03:59.976Z,43.00
2022-11-24T18:06:28.984Z,39.00
2022-11-24T18:08:58.009Z,42.25
2022-11-24T18:11:31.514Z,41.00
2022-11-24T18:14:03.032Z,41.75
2022-11-24T18:16:33.663Z,48.50
2022-11-24T18:19:11.072Z,46.50
2022-11-24T18:21:40.556Z,48.50
2022-11-24T18:24:12.465Z,53.00
2022-11-24T18:26:41.366Z,46.25
2022-11-24T18:29:08.694Z,45.00
2022-11-24T18:31:36.662Z,44.75
2022-11-24T18:34:05.617Z,40.00
2022-11-24T18:36:33.405Z,38.50
2022-11-24T18:39:04.975Z,46.00
2022-11-24T18:41:33.245Z,45.75
2022-11-24T18:44:07.878Z,44.25
2022-11-24T18:46:37.595Z,41.75
2022-11-24T18:49:05.351Z,40.00
2022-11-24T18:51:33.411Z,41.25
2022-11-24T18:54:02.335Z,41.50
2022-11-24T18:56:30.395Z,36.00
2022-11-24T18:58:57.906Z,40.00
2022-11-24T19:01:27.828Z,39.00
2022-11-24T19:03:57.604Z,39.25
2022-11-24T19:06:32.820Z,37.25
2022-11-24T19:09:03.306Z,37.75
2022-11-24T19:11:34.039Z,38.00
2022-11-24T19:14:05.471Z,35.00
2022-11-24T19:16:33.683Z,32.25
2022-11-24T19:19:02.951Z,33.75
2022-11-24T19:21:31.890Z,35.33
2022-11-24T19:24:04.528Z,34.00
2022-11-24T19:26:35.154Z,36.25
2022-11-24T19:29:03.517Z,33.75
2022-11-24T19:31:31.464Z,37.25
2022-11-24T19:33:59.962Z,37.00
2022-11-24T19:36:27.718Z,41.25
2022-11-24T19:38:56.985Z,41.25
2022-11-24T19:41:27.628Z,34.25
2022-11-24T19:43:55.304Z,34.00
2022-11-24T19:46:28.518Z,34.25
2022-11-24T19:48:58.623Z,37.50
2022-11-24T19:51:34.471Z,35.75
2022-11-24T19:54:02.494Z,35.50
2022-11-24T19:56:34.542Z,37.25
2022-11-24T19:59:10.320Z,33.50
2022-11-24T20:01:40.821Z,34.50
2022-11-24T20:04:13.851Z,17.25
2022-11-24T20:06:44.264Z,30.00
2022-11-24T20:09:13.563Z,37.25
2022-11-24T20:11:43.165Z,39.75
2022-11-24T20:14:15.291Z,36.75
2022-11-24T20:16:48.050Z,37.75
2022-11-24T20:19:18.772Z,34.25
2022-11-24T20:21:48.197Z,31.25
2022-11-24T20:24:18.435Z,35.25
2022-11-24T20:26:59.213Z,34.75
2022-11-24T20:29:28.693Z,40.00
2022-11-24T20:32:08.146Z,39.75
2022-11-24T20:34:36.114Z,39.00
2022-11-24T20:37:13.916Z,38.50
2022-11-24T20:39:46.392Z,47.50
2022-11-24T20:42:13.923Z,43.25
2022-11-24T20:44:41.081Z,49.75
2022-11-24T20:47:08.570Z,41.00
2022-11-24T20:49:38.174Z,41.50
2022-11-24T20:52:15.797Z,39.00
2022-11-24T20:54:48.256Z,39.00
2022-11-24T20:57:15.792Z,41.50
2022-11-24T20:59:42.906Z,42.50
2022-11-24T21:02:10.994Z,44.50
2022-11-24T21:04:38.319Z,49.75
2022-11-24T21:07:05.919Z,52.50
2022-11-24T21:09:33.054Z,42.50
2022-11-24T21:12:00.659Z,38.50
2022-11-24T21:14:32.437Z,51.75
2022-11-24T21:17:02.518Z,45.00
2022-11-24T21:19:29.686Z,41.75
2022-11-24T21:21:57.117Z,42.00
2022-11-24T21:24:24.275Z,43.00
2022-11-24T21:26:53.106Z,47.00
2022-11-24T21:29:23.724Z,26.75
2022-11-24T21:31:52.251Z,39.75
2022-11-24T21:34:19.735Z,42.00
2022-11-24T21:36:47.346Z,40.25
2022-11-24T21:39:15.407Z,43.75
2022-11-24T21:41:43.547Z,41.75
2022-11-24T21:44:15.126Z,40.50
2022-11-24T21:46:48.276Z,41.25
2022-11-24T21:49:18.004Z,42.00
2022-11-24T21:51:45.358Z,36.50
2022-11-24T21:54:12.306Z,36.50
2022-11-24T21:56:39.720Z,37.50
2022-11-24T21:59:06.685Z,42.00
2022-11-24T22:01:34.205Z,35.00
2022-11-24T22:04:01.225Z,41.75
2022-11-24T22:06:28.733Z,39.00
2022-11-24T22:08:55.716Z,38.25
2022-11-24T22:11:25.224Z,0.00
2022-11-24T22:13:52.593Z,38.00
2022-11-24T22:16:22.493Z,39.50
2022-11-24T22:18:50.706Z,42.50
2022-11-24T22:21:30.841Z,38.75
2022-11-24T22:23:58.023Z,39.00
2022-11-24T22:26:26.414Z,41.00
2022-11-24T22:28:54.750Z,39.75
2022-11-24T22:31:27.944Z,39.75
2022-11-24T22:33:56.468Z,41.00
2022-11-24T22:36:26.401Z,41.00
2022-11-24T22:38:55.651Z,39.00
2022-11-24T22:41:23.781Z,39.50
2022-11-24T22:43:51.198Z,41.25
2022-11-24T22:46:24.498Z,37.00
2022-11-24T22:48:55.540Z,42.50
2022-11-24T22:51:28.415Z,42.50
2022-11-24T22:53:57.596Z,43.00
2022-11-24T22:56:25.614Z,41.25
2022-11-24T22:58:52.674Z,44.00
2022-11-24T23:01:24.883Z,39.50
2022-11-24T23:03:56.652Z,38.75
2022-11-24T23:06:26.630Z,37.75
2022-11-24T23:08:54.599Z,39.50
2022-11-24T23:11:37.189Z,33.50
2022-11-24T23:14:07.238Z,41.00
2022-11-24T23:16:34.674Z,40.75
2022-11-24T23:19:01.719Z,43.25
